Terminal Aerodrome Forecast
Issued by NWS

Home | Current Version | Previous Version | Text Only | Print | Product List | Glossary On
Versions: 1 2 3 4 5 6 7 8 9 10 11 12 13 14 15 16 17 18
868
FTPA31 PHFO 231732
TAFHKO
TAF
PHKO 231732Z 2318/2418 11006KT P6SM FEW025 BKN050
     FM231900 25009KT P6SM SCT035 SCT060
     FM240600 VRB06KT P6SM FEW030 SCT050=

USA.gov is the U.S. government's official web portal to all federal, state and local government web resources and services.